Platte Center, Nebraska
Current Conditions -  °F | °C
As of 9:35 PM on Friday 24 Oct 2014 (Local Time) from KOLU Reporting Station
Clear Clear  
Wind Chill: 52°   Ceiling: Unl
Heat Index: 52°   Visibility: 10mi
Dew Point: 45°   Wind: 5mph
Humidity: 76%   Direction: 330°NNW
Pressure: 30.02"   Gusts: NA
Location:  41.54°N, 97.49°W
Report Text: KOLU 250235Z AUTO 33004KT 10SM CLR 11/07 A3002 RMK AO1
Loading
Personal Weather Stations






























Interactive Weather Map
Tropical Storm Tracking
New forecast layout! Learn more

10-Day Weather Forecast

Advertisements
Track Severe Weather on mobile